Time;durP1;ratioP1;P1;durP2;ratioP2;P2;SDS_P1;SDS_P2;PMS_P1;PMS_P2;Temp;Humidity;BMP_temperature;BMP_pressure;BME280_temperature;BME280_humidity;BME280_pressure;Samples;Min_cycle;Max_cycle;Signal;HPM_P1;HPM_P2
2021/01/02 00:00:50;;;;;;;1999.90;999.90;;;0.00;99.90;;;;;;5107164;27;20938;-46
2021/01/02 00:03:46;;;;;;;1999.90;999.90;;;0.10;99.90;;;;;;5104555;27;20469;-46
2021/01/02 00:06:26;;;;;;;1999.90;999.90;;;0.20;99.90;;;;;;5085854;28;20454;-46
2021/01/02 00:09:00;;;;;;;1999.90;999.90;;;0.20;99.90;;;;;;5107270;28;20437;-46
2021/01/02 00:11:28;;;;;;;1999.90;999.90;;;0.30;99.90;;;;;;5104162;28;20467;-46
2021/01/02 00:14:02;;;;;;;1999.90;999.90;;;0.30;99.90;;;;;;5103287;28;20437;-46
2021/01/02 00:16:54;;;;;;;1999.90;999.90;;;0.50;99.90;;;;;;5108353;28;20532;-46
2021/01/02 00:19:47;;;;;;;1999.90;999.90;;;0.50;99.90;;;;;;5099410;28;20445;-48
2021/01/02 15:14:14;;;;;;;1999.90;999.90;;;1.00;99.90;;;;;;5100314;27;20599;-47
2021/01/02 15:16:41;;;;;;;1999.90;999.90;;;1.00;99.90;;;;;;5093313;28;20974;-48
2021/01/02 15:19:06;;;;;;;1999.90;999.90;;;1.00;99.90;;;;;;5092075;28;20430;-48
2021/01/02 15:21:32;;;;;;;1999.90;999.90;;;1.00;99.90;;;;;;5094826;28;20435;-49
2021/01/02 15:23:59;;;;;;;1999.90;999.90;;;1.00;99.90;;;;;;5095712;28;20191;-47
2021/01/02 15:26:28;;;;;;;1999.90;999.90;;;1.00;99.90;;;;;;5091776;28;20254;-48
2021/01/02 15:28:54;;;;;;;1999.90;999.90;;;1.00;99.90;;;;;;5094798;28;20457;-49
2021/01/02 15:31:27;;;;;;;1999.90;999.90;;;1.10;99.90;;;;;;5076830;28;20434;-49
2021/01/02 15:33:54;;;;;;;1999.90;999.90;;;1.10;99.90;;;;;;5095667;28;20509;-48
2021/01/02 15:36:26;;;;;;;1999.90;999.90;;;1.10;99.90;;;;;;5093558;28;20479;-48
2021/01/02 15:38:52;;;;;;;1999.90;999.90;;;1.10;99.90;;;;;;5094370;28;20923;-48
2021/01/02 15:41:36;;;;;;;1999.90;999.90;;;1.10;99.90;;;;;;5093074;28;20430;-48
2021/01/02 15:44:04;;;;;;;1999.90;999.90;;;1.00;99.90;;;;;;5095420;28;20198;-48
2021/01/02 15:46:42;;;;;;;1999.90;999.90;;;1.00;99.90;;;;;;5094281;28;22028;-48
2021/01/02 15:49:08;;;;;;;1999.90;999.90;;;1.00;99.90;;;;;;5090801;28;20474;-48
2021/01/02 15:51:35;;;;;;;1999.90;999.90;;;1.00;99.90;;;;;;5094000;28;20435;-48
2021/01/02 15:54:00;;;;;;;1999.90;999.90;;;1.00;99.90;;;;;;5094492;28;20470;-49
2021/01/02 15:56:26;;;;;;;1999.90;999.90;;;1.00;99.90;;;;;;5089691;28;20457;-49
2021/01/02 15:58:53;;;;;;;1999.90;999.90;;;1.00;99.90;;;;;;5093158;28;20257;-48
2021/01/02 16:01:18;;;;;;;1999.90;999.90;;;1.00;99.90;;;;;;5093964;28;20434;-48
2021/01/02 16:03:44;;;;;;;1999.90;999.90;;;1.00;99.90;;;;;;5089895;28;20435;-47
2021/01/02 16:06:10;;;;;;;1999.90;999.90;;;1.00;99.90;;;;;;5086302;28;20213;-48
2021/01/02 16:08:36;;;;;;;1999.90;999.90;;;1.00;99.90;;;;;;5089266;28;21208;-48
2021/01/02 16:11:01;;;;;;;1999.90;999.90;;;0.90;99.90;;;;;;5093429;28;20272;-48
2021/01/02 16:13:29;;;;;;;1999.90;999.90;;;0.90;99.90;;;;;;5099095;28;20268;-48
2021/01/02 16:15:55;;;;;;;1999.90;999.90;;;0.90;99.90;;;;;;5099379;28;20208;-47
2021/01/02 16:18:21;;;;;;;1999.90;999.90;;;0.90;99.90;;;;;;5089138;28;20492;-47
2021/01/02 16:20:49;;;;;;;1999.90;999.90;;;0.90;99.90;;;;;;5089576;28;20435;-48
2021/01/02 16:23:15;;;;;;;1999.90;999.90;;;0.90;99.90;;;;;;5094671;28;20196;-46
2021/01/02 16:25:41;;;;;;;1999.90;999.90;;;0.90;99.90;;;;;;5079461;28;20460;-48
2021/01/02 16:28:08;;;;;;;1999.90;999.90;;;0.90;99.90;;;;;;5079282;28;20460;-47
2021/01/02 16:30:34;;;;;;;1999.90;999.90;;;0.90;99.90;;;;;;5077556;28;20436;-48
2021/01/02 16:33:00;;;;;;;1999.90;999.90;;;1.00;99.90;;;;;;5076097;28;20544;-48
2021/01/02 16:35:26;;;;;;;1999.90;999.90;;;0.90;99.90;;;;;;5076839;28;20227;-47
2021/01/02 16:37:52;;;;;;;1999.90;999.90;;;1.00;99.90;;;;;;5076024;28;20474;-47
2021/01/02 16:40:19;;;;;;;1999.90;999.90;;;0.90;99.90;;;;;;5076328;28;20429;-47
2021/01/02 16:42:47;;;;;;;1999.90;999.90;;;0.90;99.90;;;;;;5077417;28;20443;-48
2021/01/02 16:45:13;;;;;;;1999.90;999.90;;;0.90;99.90;;;;;;5077434;28;20448;-48
2021/01/02 16:47:41;;;;;;;1999.90;999.90;;;0.90;99.90;;;;;;5081871;28;20565;-48
2021/01/02 16:50:08;;;;;;;1999.90;999.90;;;0.90;99.90;;;;;;5080651;28;20440;-48
2021/01/02 16:52:34;;;;;;;1999.90;999.90;;;0.90;99.90;;;;;;5075734;28;20459;-47
2021/01/02 16:55:03;;;;;;;1999.90;999.90;;;0.90;99.90;;;;;;5080385;28;20442;-48
2021/01/02 16:57:30;;;;;;;1999.90;999.90;;;0.90;99.90;;;;;;5075335;28;20951;-49
2021/01/02 16:59:56;;;;;;;1999.90;999.90;;;1.00;99.90;;;;;;5080705;28;20466;-47
2021/01/02 17:02:22;;;;;;;1999.90;999.90;;;1.00;99.90;;;;;;5075318;28;20573;-47
2021/01/02 17:04:48;;;;;;;1999.90;999.90;;;1.00;99.90;;;;;;5076024;28;20445;-47
2021/01/02 17:07:15;;;;;;;1999.90;999.90;;;1.00;99.90;;;;;;5073296;28;21792;-47
2021/01/02 17:09:41;;;;;;;1999.90;999.90;;;1.00;99.90;;;;;;5077350;28;20435;-48
2021/01/02 17:12:11;;;;;;;1999.90;999.90;;;1.00;99.90;;;;;;5077988;28;20473;-48
2021/01/02 17:14:37;;;;;;;1999.90;999.90;;;0.90;99.90;;;;;;5072606;28;21162;-48
2021/01/02 17:17:04;;;;;;;1999.90;999.90;;;0.90;99.90;;;;;;5086299;28;20485;-46
2021/01/02 17:19:30;;;;;;;1999.90;999.90;;;1.00;99.90;;;;;;5085662;28;20978;-47
2021/01/02 17:21:58;;;;;;;1999.90;999.90;;;1.00;99.90;;;;;;5087581;28;20931;-47
2021/01/02 17:24:25;;;;;;;1999.90;999.90;;;0.90;99.90;;;;;;5086581;28;20419;-46
2021/01/02 17:26:58;;;;;;;1999.90;999.90;;;1.00;99.90;;;;;;5086058;28;21062;-47
2021/01/02 17:29:25;;;;;;;1999.90;999.90;;;0.90;99.90;;;;;;5076280;28;20477;-46
2021/01/02 17:31:54;;;;;;;1999.90;999.90;;;0.90;99.90;;;;;;5085705;28;20431;-46
2021/01/02 17:34:32;;;;;;;1999.90;999.90;;;0.90;99.90;;;;;;5080922;28;20439;-47
2021/01/02 17:37:01;;;;;;;1999.90;999.90;;;0.90;99.90;;;;;;5072714;28;20971;-47
2021/01/02 17:39:29;;;;;;;1999.90;999.90;;;0.90;99.90;;;;;;5075500;28;20470;-47
2021/01/02 17:42:08;;;;;;;1999.90;999.90;;;0.90;99.90;;;;;;5072536;28;20447;-47
2021/01/02 17:44:40;;;;;;;1999.90;999.90;;;1.00;99.90;;;;;;5077714;28;20470;-49
2021/01/02 17:47:11;;;;;;;1999.90;999.90;;;1.00;99.90;;;;;;5077084;28;20598;-46
2021/01/02 17:49:37;;;;;;;1999.90;999.90;;;1.00;99.90;;;;;;5078563;28;20442;-46
2021/01/02 17:52:03;;;;;;;1999.90;999.90;;;1.00;99.90;;;;;;5074454;28;20443;-46
2021/01/02 17:54:29;;;;;;;1999.90;999.90;;;1.00;99.90;;;;;;5076714;28;20192;-45
2021/01/02 17:56:56;;;;;;;1999.90;999.90;;;1.00;99.90;;;;;;5081639;28;20458;-47
2021/01/02 17:59:23;;;;;;;1999.90;999.90;;;1.00;99.90;;;;;;5086447;28;20419;-49
2021/01/02 18:01:53;;;;;;;1999.90;999.90;;;1.00;99.90;;;;;;5083666;28;20513;-47
2021/01/02 18:04:20;;;;;;;1999.90;999.90;;;0.90;99.90;;;;;;5088099;28;20499;-46
2021/01/02 18:06:46;;;;;;;1999.90;999.90;;;0.90;99.90;;;;;;5084064;28;20501;-47
2021/01/02 18:09:12;;;;;;;1999.90;999.90;;;0.90;99.90;;;;;;5073843;28;20931;-47
2021/01/02 18:11:44;;;;;;;1999.90;999.90;;;0.90;99.90;;;;;;5083081;28;20787;-46
2021/01/02 18:14:19;;;;;;;1999.90;999.90;;;0.90;99.90;;;;;;5083018;28;20474;-48
2021/01/02 18:16:53;;;;;;;1999.90;999.90;;;0.90;99.90;;;;;;5070954;28;20500;-51
2021/01/02 18:19:19;;;;;;;1999.90;999.90;;;0.80;99.90;;;;;;5080707;28;20443;-49
2021/01/02 18:21:49;;;;;;;1999.90;999.90;;;0.80;99.90;;;;;;5083829;28;20479;-48
2021/01/02 18:24:16;;;;;;;1999.90;999.90;;;0.90;99.90;;;;;;5082793;28;20438;-48
2021/01/02 18:26:46;;;;;;;1999.90;999.90;;;0.90;99.90;;;;;;5078423;28;20477;-47
2021/01/02 18:29:12;;;;;;;1999.90;999.90;;;0.90;99.90;;;;;;5078986;28;20945;-47
2021/01/02 18:31:38;;;;;;;1999.90;999.90;;;0.90;99.90;;;;;;5079761;28;20577;-46
2021/01/02 18:34:04;;;;;;;1999.90;999.90;;;0.80;99.90;;;;;;5073715;28;20471;-47
2021/01/02 18:36:31;;;;;;;1999.90;999.90;;;0.90;99.90;;;;;;5080856;28;20504;-48
2021/01/02 18:38:58;;;;;;;1999.90;999.90;;;0.90;99.90;;;;;;5087436;28;20181;-46
2021/01/02 18:41:33;;;;;;;1999.90;999.90;;;0.90;99.90;;;;;;5069087;28;20496;-46
2021/01/02 18:44:00;;;;;;;1999.90;999.90;;;0.90;99.90;;;;;;5078873;28;20767;-46
2021/01/02 18:46:29;;;;;;;1999.90;999.90;;;0.90;99.90;;;;;;5077342;28;20494;-47
2021/01/02 18:48:55;;;;;;;1999.90;999.90;;;0.80;99.90;;;;;;5078660;28;20446;-48
2021/01/02 18:51:35;;;;;;;1999.90;999.90;;;0.90;99.90;;;;;;5080198;28;20447;-46
2021/01/02 18:54:09;;;;;;;1999.90;999.90;;;0.90;99.90;;;;;;5078264;28;20545;-48
2021/01/02 18:56:35;;;;;;;1999.90;999.90;;;0.90;99.90;;;;;;5074915;28;20454;-46
2021/01/02 18:59:00;;;;;;;1999.90;999.90;;;0.90;99.90;;;;;;5079643;28;20436;-47
2021/01/02 19:01:27;;;;;;;1999.90;999.90;;;0.90;99.90;;;;;;5077441;28;20220;-48
2021/01/02 19:03:53;;;;;;;1999.90;999.90;;;0.80;99.90;;;;;;5073787;28;20204;-47
2021/01/02 19:06:19;;;;;;;1999.90;999.90;;;0.90;99.90;;;;;;5075204;28;20478;-47
2021/01/02 19:08:46;;;;;;;1999.90;999.90;;;0.90;99.90;;;;;;5083131;28;20446;-47
2021/01/02 19:11:16;;;;;;;1999.90;999.90;;;0.90;99.90;;;;;;5080388;28;20884;-47
2021/01/02 19:13:42;;;;;;;1999.90;999.90;;;0.80;99.90;;;;;;5070396;28;20475;-47
2021/01/02 19:16:17;;;;;;;1999.90;999.90;;;0.80;99.90;;;;;;5077329;28;20454;-47
2021/01/02 19:18:43;;;;;;;1999.90;999.90;;;0.90;99.90;;;;;;5075867;28;20173;-48
2021/01/02 19:21:09;;;;;;;1999.90;999.90;;;0.80;99.90;;;;;;5073327;28;21018;-47
2021/01/02 19:23:34;;;;;;;1999.90;999.90;;;0.80;99.90;;;;;;5073292;28;20193;-48
2021/01/02 19:26:00;;;;;;;1999.90;999.90;;;0.80;99.90;;;;;;5076123;28;20215;-47
2021/01/02 19:28:25;;;;;;;1999.90;999.90;;;0.80;99.90;;;;;;5077354;28;20196;-49
2021/01/02 19:30:51;;;;;;;1999.90;999.90;;;0.80;99.90;;;;;;5079589;28;20193;-47
2021/01/02 19:33:17;;;;;;;1999.90;999.90;;;0.80;99.90;;;;;;5081750;28;20307;-48
2021/01/02 19:35:42;;;;;;;1999.90;999.90;;;0.80;99.90;;;;;;5073177;28;21009;-48
2021/01/02 19:38:08;;;;;;;1999.90;999.90;;;0.80;99.90;;;;;;5074520;28;20189;-48
2021/01/02 19:40:33;;;;;;;1999.90;999.90;;;0.70;99.90;;;;;;5076962;28;20268;-47
2021/01/02 19:42:59;;;;;;;1999.90;999.90;;;0.60;99.90;;;;;;5075869;28;20871;-47
2021/01/02 19:45:25;;;;;;;1999.90;999.90;;;0.60;99.90;;;;;;5072175;28;20181;-47
2021/01/02 19:47:51;;;;;;;1999.90;999.90;;;0.60;99.90;;;;;;5073007;28;20465;-47
2021/01/02 19:50:16;;;;;;;1999.90;999.90;;;0.60;99.90;;;;;;5075363;28;20199;-48
2021/01/02 19:52:42;;;;;;;1999.90;999.90;;;0.60;99.90;;;;;;5076729;28;20216;-47
2021/01/02 19:55:08;;;;;;;1999.90;999.90;;;0.50;99.90;;;;;;5075553;28;20267;-47
2021/01/02 19:57:34;;;;;;;1999.90;999.90;;;0.50;99.90;;;;;;5076166;28;20197;-47
2021/01/02 19:59:59;;;;;;;1999.90;999.90;;;0.50;99.90;;;;;;5076970;28;20529;-47
2021/01/02 20:02:25;;;;;;;1999.90;999.90;;;0.60;99.90;;;;;;5078217;28;20230;-48
2021/01/02 20:04:51;;;;;;;1999.90;999.90;;;0.60;99.90;;;;;;5080800;28;20907;-47
2021/01/02 20:07:18;;;;;;;1999.90;999.90;;;0.60;99.90;;;;;;5080788;28;20221;-47
2021/01/02 20:09:45;;;;;;;1999.90;999.90;;;0.60;99.90;;;;;;5076027;28;20438;-46
2021/01/02 20:12:10;;;;;;;1999.90;999.90;;;0.60;99.90;;;;;;5077229;28;20549;-47
2021/01/02 20:14:37;;;;;;;1999.90;999.90;;;0.60;99.90;;;;;;5081148;28;20435;-48
2021/01/02 20:17:05;;;;;;;1999.90;999.90;;;0.60;99.90;;;;;;5085323;28;20677;-47
2021/01/02 20:19:31;;;;;;;1999.90;999.90;;;0.50;99.90;;;;;;5078058;28;21190;-47
2021/01/02 20:22:02;;;;;;;1999.90;999.90;;;0.60;99.90;;;;;;5072523;28;20450;-48
2021/01/02 20:24:29;;;;;;;1999.90;999.90;;;0.60;99.90;;;;;;5078643;28;20189;-47
2021/01/02 20:27:01;;;;;;;1999.90;999.90;;;0.70;99.90;;;;;;5058316;28;20462;-47
2021/01/02 20:29:28;;;;;;;1999.90;999.90;;;0.70;99.90;;;;;;5078641;28;20443;-47
2021/01/02 20:31:59;;;;;;;1999.90;999.90;;;0.60;99.90;;;;;;5080767;28;20525;-48
2021/01/02 20:34:26;;;;;;;1999.90;999.90;;;0.70;99.90;;;;;;5077177;28;20451;-47
2021/01/02 20:36:54;;;;;;;1999.90;999.90;;;0.70;99.90;;;;;;5075622;28;20467;-48
2021/01/02 20:39:21;;;;;;;1999.90;999.90;;;0.70;99.90;;;;;;5080840;28;21232;-47
2021/01/02 20:41:46;;;;;;;1999.90;999.90;;;0.60;99.90;;;;;;5084110;28;20428;-47
2021/01/02 20:44:13;;;;;;;1999.90;999.90;;;0.60;99.90;;;;;;5078963;28;20441;-47
2021/01/02 20:46:40;;;;;;;1999.90;999.90;;;0.70;99.90;;;;;;5072552;28;20467;-47
2021/01/02 20:49:10;;;;;;;1999.90;999.90;;;0.60;99.90;;;;;;5077154;28;20963;-47
2021/01/02 20:51:42;;;;;;;1999.90;999.90;;;0.70;99.90;;;;;;5085934;28;20434;-47
2021/01/02 20:54:08;;;;;;;1999.90;999.90;;;0.60;99.90;;;;;;5082949;28;20464;-48
2021/01/02 20:56:37;;;;;;;1999.90;999.90;;;0.60;99.90;;;;;;5074157;28;20612;-47
2021/01/02 20:59:04;;;;;;;1999.90;999.90;;;0.60;99.90;;;;;;5074004;28;21025;-47
2021/01/02 21:01:32;;;;;;;1999.90;999.90;;;0.60;99.90;;;;;;5078878;28;20427;-48
2021/01/02 21:03:58;;;;;;;1999.90;999.90;;;0.60;99.90;;;;;;5076048;28;20446;-47
2021/01/02 21:06:27;;;;;;;1999.90;999.90;;;0.60;99.90;;;;;;5074640;28;20459;-46
2021/01/02 21:08:54;;;;;;;1999.90;999.90;;;0.60;99.90;;;;;;5076306;28;20443;-49
2021/01/02 21:11:22;;;;;;;1999.90;999.90;;;0.60;99.90;;;;;;5076058;28;20462;-47
2021/01/02 21:13:49;;;;;;;1999.90;999.90;;;0.60;99.90;;;;;;5073024;28;20467;-48
2021/01/02 21:16:15;;;;;;;1999.90;999.90;;;0.60;99.90;;;;;;5072084;28;20472;-47
2021/01/02 21:18:42;;;;;;;1999.90;999.90;;;0.70;99.90;;;;;;5074381;28;20431;-48
2021/01/02 21:21:08;;;;;;;1999.90;999.90;;;0.50;99.90;;;;;;5076921;28;20454;-47
2021/01/02 21:23:34;;;;;;;1999.90;999.90;;;0.60;99.90;;;;;;5076880;28;21149;-48
2021/01/02 21:26:00;;;;;;;1999.90;999.90;;;0.70;99.90;;;;;;5075830;28;20463;-48
2021/01/02 21:28:27;;;;;;;1999.90;999.90;;;0.60;99.90;;;;;;5078090;28;20443;-47
2021/01/02 21:30:56;;;;;;;1999.90;999.90;;;0.70;99.90;;;;;;5072282;28;20990;-47
2021/01/02 21:33:22;;;;;;;1999.90;999.90;;;0.70;99.90;;;;;;5071499;28;21303;-47
2021/01/02 21:35:49;;;;;;;1999.90;999.90;;;0.70;99.90;;;;;;5076743;28;20423;-47
2021/01/02 21:38:15;;;;;;;1999.90;999.90;;;0.70;99.90;;;;;;5070587;28;20481;-47
2021/01/02 21:40:41;;;;;;;1999.90;999.90;;;0.60;99.90;;;;;;5077182;28;20480;-47
2021/01/02 21:43:06;;;;;;;1999.90;999.90;;;0.60;99.90;;;;;;5074352;28;20438;-46
2021/01/02 21:45:32;;;;;;;1999.90;999.90;;;0.60;99.90;;;;;;5073620;28;20447;-47
2021/01/02 21:47:58;;;;;;;1999.90;999.90;;;0.70;99.90;;;;;;5076140;28;20186;-47
2021/01/02 21:50:26;;;;;;;1999.90;999.90;;;0.70;99.90;;;;;;5077214;28;20250;-48
2021/01/02 21:52:54;;;;;;;1999.90;999.90;;;0.70;99.90;;;;;;5074402;28;20244;-47
2021/01/02 21:55:21;;;;;;;1999.90;999.90;;;0.70;99.90;;;;;;5072777;28;21083;-48
2021/01/02 21:57:47;;;;;;;1999.90;999.90;;;0.70;99.90;;;;;;5078623;28;20713;-48
2021/01/02 22:00:22;;;;;;;1999.90;999.90;;;0.70;99.90;;;;;;5085686;28;20538;-47
2021/01/02 22:02:49;;;;;;;1999.90;999.90;;;0.80;99.90;;;;;;5081955;28;20437;-47
2021/01/02 22:05:14;;;;;;;1999.90;999.90;;;0.80;99.90;;;;;;5078406;28;20444;-47
2021/01/02 22:07:41;;;;;;;1999.90;999.90;;;0.70;99.90;;;;;;5085504;28;20447;-47
2021/01/02 22:10:14;;;;;;;1999.90;999.90;;;0.70;99.90;;;;;;5079031;28;20275;-47
2021/01/02 22:12:40;;;;;;;1999.90;999.90;;;0.80;99.90;;;;;;5074794;28;20460;-47
2021/01/02 22:15:07;;;;;;;1999.90;999.90;;;0.70;99.90;;;;;;5070981;28;20488;-48
2021/01/02 22:17:33;;;;;;;1999.90;999.90;;;0.80;99.90;;;;;;5076478;28;20253;-47
2021/01/02 22:19:58;;;;;;;1999.90;999.90;;;0.70;99.90;;;;;;5073603;28;20818;-48
2021/01/02 22:22:24;;;;;;;1999.90;999.90;;;0.70;99.90;;;;;;5070948;28;20458;-47
2021/01/02 22:24:50;;;;;;;1999.90;999.90;;;0.70;99.90;;;;;;5075229;28;20757;-47
2021/01/02 22:27:16;;;;;;;1999.90;999.90;;;0.70;99.90;;;;;;5082235;28;20205;-47
2021/01/02 22:29:42;;;;;;;1999.90;999.90;;;0.80;99.90;;;;;;5085123;28;20250;-48
2021/01/02 22:32:07;;;;;;;1999.90;999.90;;;0.80;99.90;;;;;;5081793;28;20951;-48
2021/01/02 22:34:33;;;;;;;1999.90;999.90;;;0.80;99.90;;;;;;5086934;28;20664;-48
2021/01/02 22:37:01;;;;;;;1999.90;999.90;;;0.80;99.90;;;;;;5075754;28;20213;-48
2021/01/02 22:39:29;;;;;;;1999.90;999.90;;;0.80;99.90;;;;;;5085651;28;20185;-47
2021/01/02 22:42:02;;;;;;;1999.90;999.90;;;0.80;99.90;;;;;;5072531;28;20513;-47
2021/01/02 22:44:28;;;;;;;1999.90;999.90;;;0.90;99.90;;;;;;5081054;28;20431;-47
2021/01/02 22:46:57;;;;;;;1999.90;999.90;;;0.90;99.90;;;;;;5087176;28;20435;-48
2021/01/02 22:49:23;;;;;;;1999.90;999.90;;;0.90;99.90;;;;;;5066664;28;20182;-47
2021/01/02 22:51:53;;;;;;;1999.90;999.90;;;0.90;99.90;;;;;;5075390;28;20526;-49
2021/01/02 22:54:19;;;;;;;1999.90;999.90;;;0.90;99.90;;;;;;5081167;28;20467;-49
2021/01/02 22:56:54;;;;;;;1999.90;999.90;;;0.90;99.90;;;;;;5074090;28;21131;-50
2021/01/02 22:59:21;;;;;;;1999.90;999.90;;;0.80;99.90;;;;;;5077224;28;20673;-48
2021/01/02 23:01:47;;;;;;;1999.90;999.90;;;0.80;99.90;;;;;;5084227;28;20888;-50
2021/01/02 23:04:13;;;;;;;1999.90;999.90;;;0.90;99.90;;;;;;5079577;28;20454;-48
2021/01/02 23:06:39;;;;;;;1999.90;999.90;;;0.80;99.90;;;;;;5081967;28;21121;-49
2021/01/02 23:09:06;;;;;;;1999.90;999.90;;;0.80;99.90;;;;;;5078505;28;20503;-48
2021/01/02 23:11:40;;;;;;;1999.90;999.90;;;0.80;99.90;;;;;;5072958;28;20188;-49
2021/01/02 23:14:06;;;;;;;1999.90;999.90;;;0.80;99.90;;;;;;5073412;28;20470;-49
2021/01/02 23:16:39;;;;;;;1999.90;999.90;;;0.70;99.90;;;;;;5074834;28;20824;-49
2021/01/02 23:19:27;;;;;;;1999.90;999.90;;;0.70;99.90;;;;;;5084500;28;20419;-49
2021/01/02 23:22:06;;;;;;;1999.90;999.90;;;0.70;99.90;;;;;;5080832;28;20443;-48
2021/01/02 23:24:31;;;;;;;1999.90;999.90;;;0.70;99.90;;;;;;5076342;28;20446;-46
2021/01/02 23:27:00;;;;;;;1999.90;999.90;;;0.70;99.90;;;;;;5083573;28;20820;-46
2021/01/02 23:29:26;;;;;;;1999.90;999.90;;;0.80;99.90;;;;;;5078261;28;20191;-46
2021/01/02 23:31:52;;;;;;;1999.90;999.90;;;0.80;99.90;;;;;;5084832;28;20423;-46
2021/01/02 23:34:20;;;;;;;1999.90;999.90;;;0.70;99.90;;;;;;5074571;28;20474;-46
2021/01/02 23:36:46;;;;;;;1999.90;999.90;;;0.70;99.90;;;;;;5088497;28;20464;-47
2021/01/02 23:39:13;;;;;;;1999.90;999.90;;;0.70;99.90;;;;;;5075707;28;20559;-46
2021/01/02 23:41:39;;;;;;;1999.90;999.90;;;0.70;99.90;;;;;;5080666;28;20435;-47
2021/01/02 23:44:04;;;;;;;1999.90;999.90;;;0.70;99.90;;;;;;5077803;28;20452;-47
2021/01/02 23:46:30;;;;;;;1999.90;999.90;;;0.80;99.90;;;;;;5081522;28;20473;-46
2021/01/02 23:48:56;;;;;;;1999.90;999.90;;;0.70;99.90;;;;;;5088753;28;20426;-47
2021/01/02 23:51:22;;;;;;;1999.90;999.90;;;0.70;99.90;;;;;;5077218;28;20193;-47
2021/01/02 23:53:49;;;;;;;1999.90;999.90;;;0.70;99.90;;;;;;5079808;28;20737;-45
2021/01/02 23:56:16;;;;;;;1999.90;999.90;;;0.70;99.90;;;;;;5081030;28;20975;-45
